createdAt,value
2017-12-21T00:00:50.265Z,5.97
2017-12-21T00:01:52.121Z,5.89
2017-12-21T00:02:53.983Z,5.97
2017-12-21T00:03:55.801Z,5.96
2017-12-21T00:04:57.595Z,5.90
2017-12-21T00:05:59.479Z,5.97
2017-12-21T00:07:01.365Z,5.97
2017-12-21T00:08:03.249Z,5.91
2017-12-21T00:09:17.378Z,5.96
2017-12-21T00:10:19.244Z,5.83
2017-12-21T00:11:21.099Z,5.81
2017-12-21T00:12:22.956Z,5.81
2017-12-21T00:13:24.751Z,5.81
2017-12-21T00:14:26.545Z,5.89
2017-12-21T00:15:28.412Z,5.91
2017-12-21T00:16:30.263Z,5.93
2017-12-21T00:17:32.124Z,5.96
2017-12-21T00:18:46.252Z,6.06
2017-12-21T00:19:48.113Z,5.94
2017-12-21T00:20:49.973Z,6.00
2017-12-21T00:21:51.832Z,5.90
2017-12-21T00:22:53.630Z,5.97
2017-12-21T00:23:55.450Z,5.85
2017-12-21T00:24:57.312Z,5.86
2017-12-21T00:25:59.171Z,5.83
2017-12-21T00:27:01.035Z,5.85
2017-12-21T00:28:15.187Z,5.94
2017-12-21T00:29:17.071Z,6.00
2017-12-21T00:30:18.959Z,5.97
2017-12-21T00:31:20.833Z,5.94
2017-12-21T00:32:22.632Z,6.00
2017-12-21T00:33:24.424Z,5.99
2017-12-21T00:34:26.288Z,5.82
2017-12-21T00:35:28.151Z,5.89
2017-12-21T00:36:30.030Z,5.81
2017-12-21T00:37:44.164Z,5.75
2017-12-21T00:38:46.028Z,5.78
2017-12-21T00:39:47.912Z,5.78
2017-12-21T00:40:49.791Z,5.89
2017-12-21T00:41:51.584Z,5.81
2017-12-21T00:42:53.384Z,5.75
2017-12-21T00:43:55.276Z,5.79
2017-12-21T00:44:57.156Z,5.76
2017-12-21T00:45:59.036Z,5.65
2017-12-21T00:47:13.171Z,5.64
2017-12-21T00:48:15.054Z,5.74
2017-12-21T00:49:16.934Z,5.76
2017-12-21T00:50:18.794Z,5.71
2017-12-21T00:51:20.590Z,5.72
2017-12-21T00:52:22.388Z,5.63
2017-12-21T00:53:24.254Z,5.58
2017-12-21T00:54:26.136Z,5.67
2017-12-21T00:55:28.016Z,5.74
2017-12-21T00:56:42.153Z,5.78
2017-12-21T00:57:44.006Z,5.82
2017-12-21T00:58:45.870Z,5.82
2017-12-21T00:59:47.727Z,5.89
2017-12-21T01:00:49.519Z,5.86
2017-12-21T01:01:51.311Z,5.82
2017-12-21T01:02:53.176Z,6.00
2017-12-21T01:03:55.054Z,6.04
2017-12-21T01:04:56.920Z,5.99
2017-12-21T01:06:11.050Z,6.01
2017-12-21T01:07:12.910Z,5.94
2017-12-21T01:08:14.767Z,5.89
2017-12-21T01:09:16.626Z,5.86
2017-12-21T01:10:18.421Z,5.74
2017-12-21T01:11:20.218Z,5.82
2017-12-21T01:12:22.081Z,5.86
2017-12-21T01:13:23.965Z,5.82
2017-12-21T01:14:25.880Z,5.86
2017-12-21T01:15:40.006Z,5.75
2017-12-21T01:16:41.867Z,5.65
2017-12-21T01:17:43.749Z,5.51
2017-12-21T01:18:45.627Z,5.39
2017-12-21T01:19:47.410Z,5.39
2017-12-21T01:20:49.243Z,5.46
2017-12-21T01:21:51.109Z,5.38
2017-12-21T01:22:52.987Z,5.36
2017-12-21T01:23:54.852Z,5.30
2017-12-21T01:25:08.989Z,5.39
2017-12-21T01:26:10.872Z,5.35
2017-12-21T01:27:12.737Z,5.45
2017-12-21T01:28:14.613Z,5.46
2017-12-21T01:29:16.410Z,5.42
2017-12-21T01:30:18.224Z,5.46
2017-12-21T01:31:20.088Z,5.39
2017-12-21T01:32:21.945Z,5.36
2017-12-21T01:33:23.808Z,5.35
2017-12-21T01:34:37.987Z,5.49
2017-12-21T01:35:39.868Z,5.40
2017-12-21T01:36:41.729Z,5.45
2017-12-21T01:37:43.591Z,5.56
2017-12-21T01:38:45.412Z,5.53
2017-12-21T01:39:47.205Z,5.54
2017-12-21T01:40:49.074Z,5.58
2017-12-21T01:41:50.953Z,5.64
2017-12-21T01:42:52.810Z,5.68
2017-12-21T01:44:06.991Z,5.78
2017-12-21T01:45:08.848Z,5.75
2017-12-21T01:46:10.703Z,5.76
2017-12-21T01:47:12.569Z,5.76
2017-12-21T01:48:14.388Z,5.82
2017-12-21T01:49:16.208Z,5.79
2017-12-21T01:50:18.094Z,5.78
2017-12-21T01:51:19.978Z,5.78
2017-12-21T01:52:21.865Z,5.76
2017-12-21T01:53:35.990Z,5.78
2017-12-21T01:54:37.875Z,5.86
2017-12-21T01:55:39.766Z,5.83
2017-12-21T01:56:41.637Z,5.90
2017-12-21T01:57:43.433Z,5.82
2017-12-21T01:58:45.228Z,5.81
2017-12-21T01:59:47.091Z,5.74
2017-12-21T02:00:48.949Z,5.79
2017-12-21T02:01:50.808Z,5.71
2017-12-21T02:03:04.938Z,5.72
2017-12-21T02:04:06.823Z,5.71
2017-12-21T02:05:08.684Z,5.78
2017-12-21T02:06:10.549Z,5.76
2017-12-21T02:07:12.368Z,5.72
2017-12-21T02:08:14.167Z,5.72
2017-12-21T02:09:16.049Z,5.72
2017-12-21T02:10:17.910Z,5.74
2017-12-21T02:11:19.790Z,5.79
2017-12-21T02:12:33.970Z,5.86
2017-12-21T02:13:35.832Z,5.83
2017-12-21T02:14:37.686Z,5.82
2017-12-21T02:15:39.543Z,5.83
2017-12-21T02:16:41.340Z,5.78
2017-12-21T02:17:43.161Z,5.82
2017-12-21T02:18:45.051Z,5.79
2017-12-21T02:19:46.907Z,5.91
2017-12-21T02:20:48.791Z,5.91
2017-12-21T02:22:02.984Z,6.04
2017-12-21T02:23:04.840Z,6.09
2017-12-21T02:24:06.699Z,6.03
2017-12-21T02:25:08.582Z,6.03
2017-12-21T02:26:10.409Z,6.04
2017-12-21T02:27:12.227Z,6.14
2017-12-21T02:28:14.112Z,6.17
2017-12-21T02:29:15.995Z,6.15
2017-12-21T02:30:17.880Z,6.17
2017-12-21T02:31:32.011Z,6.14
2017-12-21T02:32:33.894Z,6.01
2017-12-21T02:33:35.775Z,5.99
2017-12-21T02:34:37.638Z,5.83
2017-12-21T02:35:39.466Z,5.82
2017-12-21T02:36:41.261Z,5.85
2017-12-21T02:37:43.121Z,5.72
2017-12-21T02:38:44.982Z,5.65
2017-12-21T02:39:46.863Z,5.60
2017-12-21T02:41:00.999Z,5.45
2017-12-21T02:42:02.885Z,5.56
2017-12-21T02:43:04.767Z,5.48
2017-12-21T02:44:06.653Z,5.57
2017-12-21T02:45:08.480Z,5.64
2017-12-21T02:46:10.296Z,5.76
2017-12-21T02:47:12.161Z,5.75
2017-12-21T02:48:14.043Z,5.81
2017-12-21T02:49:15.923Z,5.91
2017-12-21T02:50:30.058Z,5.97
2017-12-21T02:51:31.915Z,5.89
2017-12-21T02:52:33.777Z,5.89
2017-12-21T02:53:35.657Z,5.96
2017-12-21T02:54:37.455Z,5.85
2017-12-21T02:55:39.251Z,5.76
2017-12-21T02:56:41.117Z,5.74
2017-12-21T02:57:42.978Z,5.76
2017-12-21T02:58:44.839Z,5.82
2017-12-21T02:59:58.977Z,5.74
2017-12-21T03:01:00.843Z,5.81
2017-12-21T03:02:02.709Z,5.86
2017-12-21T03:03:04.594Z,6.00
2017-12-21T03:04:06.395Z,6.00
2017-12-21T03:05:08.216Z,6.08
2017-12-21T03:06:10.098Z,6.14
2017-12-21T03:07:11.967Z,6.19
2017-12-21T03:08:13.835Z,6.25
2017-12-21T03:09:28.042Z,6.15
2017-12-21T03:10:29.933Z,6.11
2017-12-21T03:11:31.819Z,6.19
2017-12-21T03:12:33.682Z,6.22
2017-12-21T03:13:35.506Z,6.28
2017-12-21T03:14:37.321Z,6.28
2017-12-21T03:15:39.183Z,6.25
2017-12-21T03:16:41.042Z,6.41
2017-12-21T03:17:42.899Z,6.34
2017-12-21T03:18:57.032Z,6.34
2017-12-21T03:19:58.892Z,6.36
2017-12-21T03:21:00.756Z,6.36
2017-12-21T03:22:02.615Z,6.34
2017-12-21T03:23:04.419Z,6.18
2017-12-21T03:24:06.237Z,6.25
2017-12-21T03:25:08.101Z,6.25
2017-12-21T03:26:09.986Z,6.25
2017-12-21T03:27:11.849Z,6.22
2017-12-21T03:28:26.033Z,6.21
2017-12-21T03:29:27.899Z,6.30
2017-12-21T03:30:29.814Z,6.21
2017-12-21T03:31:31.889Z,6.36
2017-12-21T03:32:33.844Z,6.27
2017-12-21T03:33:35.779Z,6.31
2017-12-21T03:34:37.776Z,6.22
2017-12-21T03:35:39.802Z,6.22
2017-12-21T03:36:41.802Z,6.15
2017-12-21T03:37:56.182Z,5.99
2017-12-21T03:38:58.157Z,5.83
2017-12-21T03:40:00.056Z,5.72
2017-12-21T03:41:02.142Z,5.63
2017-12-21T03:42:04.069Z,5.46
2017-12-21T03:43:05.949Z,5.43
2017-12-21T03:44:07.895Z,5.30
2017-12-21T03:45:09.858Z,5.35
2017-12-21T03:46:11.742Z,5.31
2017-12-21T03:47:25.902Z,5.20
2017-12-21T03:48:27.789Z,5.18
2017-12-21T03:49:29.695Z,5.04
2017-12-21T03:50:31.576Z,5.12
2017-12-21T03:51:33.380Z,5.17
2017-12-21T03:52:35.197Z,5.13
2017-12-21T03:53:37.061Z,5.10
2017-12-21T03:54:38.923Z,5.31
2017-12-21T03:55:40.788Z,5.36
2017-12-21T03:56:54.974Z,5.49
2017-12-21T03:57:56.837Z,5.46
2017-12-21T03:58:58.696Z,5.49
2017-12-21T04:00:00.579Z,5.57
2017-12-21T04:01:02.385Z,5.63
2017-12-21T04:02:04.184Z,5.76
2017-12-21T04:03:06.049Z,5.67
2017-12-21T04:04:07.926Z,5.72
2017-12-21T04:05:09.795Z,5.81
2017-12-21T04:06:23.951Z,6.00
2017-12-21T04:07:25.818Z,6.03
2017-12-21T04:08:27.703Z,6.12
2017-12-21T04:09:29.569Z,6.21
2017-12-21T04:10:31.369Z,6.19
2017-12-21T04:11:33.189Z,6.17
2017-12-21T04:12:35.070Z,6.14
2017-12-21T04:13:36.940Z,6.19
2017-12-21T04:14:38.783Z,6.14
2017-12-21T04:15:52.920Z,6.30
2017-12-21T04:16:54.786Z,6.34
2017-12-21T04:17:56.671Z,6.21
2017-12-21T04:18:58.580Z,6.17
2017-12-21T04:20:00.332Z,6.18
2017-12-21T04:21:02.136Z,6.22
2017-12-21T04:22:04.020Z,6.30
2017-12-21T04:23:05.887Z,6.31
2017-12-21T04:24:07.766Z,6.41
2017-12-21T04:25:21.906Z,6.41
2017-12-21T04:26:23.796Z,6.49
2017-12-21T04:27:25.682Z,6.44
2017-12-21T04:28:27.542Z,6.49
2017-12-21T04:29:29.341Z,6.49
2017-12-21T04:30:31.142Z,6.59
2017-12-21T04:31:33.022Z,6.59
2017-12-21T04:32:34.888Z,6.58
2017-12-21T04:33:36.753Z,6.59
2017-12-21T04:34:50.893Z,6.62
2017-12-21T04:35:52.780Z,6.52
2017-12-21T04:36:54.647Z,6.55
2017-12-21T04:37:56.527Z,6.46
2017-12-21T04:38:58.334Z,6.31
2017-12-21T04:40:00.152Z,6.19
2017-12-21T04:41:02.039Z,6.18
2017-12-21T04:42:03.926Z,6.22
2017-12-21T04:43:05.810Z,6.11
2017-12-21T04:44:19.941Z,6.15
2017-12-21T04:45:21.810Z,6.01
2017-12-21T04:46:23.701Z,6.00
2017-12-21T04:47:25.586Z,6.03
2017-12-21T04:48:27.388Z,5.99
2017-12-21T04:49:29.186Z,6.09
2017-12-21T04:50:31.049Z,6.04
2017-12-21T04:51:32.914Z,5.99
2017-12-21T04:52:34.803Z,6.09
2017-12-21T04:53:48.934Z,6.18
2017-12-21T04:54:50.822Z,6.18
2017-12-21T04:55:52.686Z,6.27
2017-12-21T04:56:54.547Z,6.21
2017-12-21T04:57:56.350Z,6.31
2017-12-21T04:58:58.175Z,6.15
2017-12-21T05:00:00.056Z,6.03
2017-12-21T05:01:01.921Z,6.03
2017-12-21T05:02:03.788Z,6.04
2017-12-21T05:03:17.997Z,6.19
2017-12-21T05:04:19.858Z,6.19
2017-12-21T05:05:21.748Z,6.25
2017-12-21T05:06:23.611Z,6.27
2017-12-21T05:07:25.428Z,6.18
2017-12-21T05:08:27.236Z,6.30
2017-12-21T05:09:29.118Z,6.30
2017-12-21T05:10:30.980Z,6.36
2017-12-21T05:11:32.845Z,6.25
2017-12-21T05:12:46.984Z,6.17
2017-12-21T05:13:48.873Z,6.33
2017-12-21T05:14:50.761Z,6.19
2017-12-21T05:15:52.621Z,6.21
2017-12-21T05:16:54.423Z,6.28
2017-12-21T05:17:56.243Z,6.31
2017-12-21T05:18:58.108Z,6.25
2017-12-21T05:19:59.993Z,6.22
2017-12-21T05:21:01.880Z,6.28
2017-12-21T05:22:16.016Z,6.18
2017-12-21T05:23:17.906Z,6.34
2017-12-21T05:24:19.775Z,6.33
2017-12-21T05:25:21.638Z,6.27
2017-12-21T05:26:23.459Z,6.28
2017-12-21T05:27:25.275Z,6.40
2017-12-21T05:28:27.137Z,6.40
2017-12-21T05:29:29.007Z,6.36
2017-12-21T05:30:30.869Z,6.48
2017-12-21T05:31:45.046Z,6.49
2017-12-21T05:32:46.891Z,6.46
2017-12-21T05:33:48.776Z,6.55
2017-12-21T05:34:50.639Z,6.48
2017-12-21T05:35:52.482Z,6.52
2017-12-21T05:36:54.299Z,6.51
2017-12-21T05:37:56.101Z,6.38
2017-12-21T05:38:57.960Z,6.36
2017-12-21T05:39:59.829Z,6.33
2017-12-21T05:41:14.026Z,6.31
2017-12-21T05:42:15.884Z,6.31
2017-12-21T05:43:17.799Z,6.30
2017-12-21T05:44:19.609Z,6.28
2017-12-21T05:45:21.418Z,6.25
2017-12-21T05:46:23.204Z,6.28
2017-12-21T05:47:25.067Z,6.36
2017-12-21T05:48:26.934Z,6.37
2017-12-21T05:49:28.796Z,6.38
2017-12-21T05:50:42.961Z,6.34
2017-12-21T05:51:44.850Z,6.31
2017-12-21T05:52:46.737Z,6.22
2017-12-21T05:53:48.622Z,6.11
2017-12-21T05:54:50.418Z,6.06
2017-12-21T05:55:52.215Z,6.04
2017-12-21T05:56:54.098Z,6.01
2017-12-21T05:57:55.965Z,5.97
2017-12-21T05:58:57.826Z,6.03
2017-12-21T06:00:12.010Z,6.01
2017-12-21T06:01:13.872Z,5.94
2017-12-21T06:02:15.737Z,5.79
2017-12-21T06:03:17.620Z,5.85
2017-12-21T06:04:19.420Z,5.90
2017-12-21T06:05:21.222Z,5.97
2017-12-21T06:06:23.107Z,5.97
2017-12-21T06:07:24.991Z,5.99
2017-12-21T06:08:26.872Z,5.99
2017-12-21T06:09:41.053Z,6.06
2017-12-21T06:10:42.915Z,6.00
2017-12-21T06:11:44.783Z,6.14
2017-12-21T06:12:46.669Z,6.19
2017-12-21T06:13:48.492Z,6.15
2017-12-21T06:14:50.313Z,6.30
2017-12-21T06:15:52.186Z,6.22
2017-12-21T06:16:54.049Z,6.19
2017-12-21T06:17:55.911Z,6.18
2017-12-21T06:19:10.047Z,6.04
2017-12-21T06:20:11.935Z,6.03
2017-12-21T06:21:13.827Z,5.99
2017-12-21T06:22:15.683Z,5.81
2017-12-21T06:23:17.490Z,5.78
2017-12-21T06:24:19.281Z,5.75
2017-12-21T06:25:21.167Z,5.72
2017-12-21T06:26:23.032Z,5.63
2017-12-21T06:27:24.916Z,5.45
2017-12-21T06:28:39.069Z,5.49
2017-12-21T06:29:40.936Z,5.60
2017-12-21T06:30:42.795Z,5.61
2017-12-21T06:31:44.657Z,5.72
2017-12-21T06:32:46.480Z,5.67
2017-12-21T06:33:48.301Z,5.64
2017-12-21T06:34:50.190Z,5.61
2017-12-21T06:35:52.074Z,5.58
2017-12-21T06:36:53.936Z,5.61
2017-12-21T06:38:08.089Z,5.67
2017-12-21T06:39:09.953Z,5.68
2017-12-21T06:40:11.819Z,5.68
2017-12-21T06:41:13.701Z,5.68
2017-12-21T06:42:15.506Z,5.63
2017-12-21T06:43:17.305Z,5.71
2017-12-21T06:44:19.190Z,5.72
2017-12-21T06:45:21.058Z,5.78
2017-12-21T06:46:22.915Z,5.65
2017-12-21T06:47:37.054Z,5.67
2017-12-21T06:48:38.942Z,5.68
2017-12-21T06:49:40.828Z,5.71
2017-12-21T06:50:42.740Z,5.74
2017-12-21T06:51:44.541Z,5.81
2017-12-21T06:52:46.342Z,5.85
2017-12-21T06:53:48.204Z,5.85
2017-12-21T06:54:50.090Z,5.79
2017-12-21T06:55:51.953Z,5.85
2017-12-21T06:57:06.090Z,5.75
2017-12-21T06:58:07.980Z,5.81
2017-12-21T06:59:09.849Z,5.83
2017-12-21T07:00:11.714Z,5.99
2017-12-21T07:01:13.537Z,5.96
2017-12-21T07:02:15.353Z,5.91
2017-12-21T07:03:17.218Z,5.83
2017-12-21T07:04:19.087Z,5.82
2017-12-21T07:05:20.986Z,5.82
2017-12-21T07:06:35.149Z,5.81
2017-12-21T07:07:37.037Z,5.96
2017-12-21T07:08:38.928Z,5.85
2017-12-21T07:09:40.819Z,5.89
2017-12-21T07:10:42.643Z,5.81
2017-12-21T07:11:44.445Z,5.79
2017-12-21T07:12:46.343Z,5.79
2017-12-21T07:13:48.223Z,5.85
2017-12-21T07:14:50.098Z,5.72
2017-12-21T07:16:04.239Z,5.74
2017-12-21T07:17:06.103Z,5.72
2017-12-21T07:18:07.967Z,5.74
2017-12-21T07:19:09.831Z,5.81
2017-12-21T07:20:11.656Z,5.78
2017-12-21T07:21:13.455Z,5.81
2017-12-21T07:22:15.322Z,5.83
2017-12-21T07:23:17.189Z,5.89
2017-12-21T07:24:19.055Z,5.93
2017-12-21T07:25:33.186Z,5.99
2017-12-21T07:26:35.057Z,6.03
2017-12-21T07:27:36.921Z,6.00
2017-12-21T07:28:38.788Z,5.97
2017-12-21T07:29:40.613Z,5.86
2017-12-21T07:30:42.443Z,5.79
2017-12-21T07:31:44.331Z,5.76
2017-12-21T07:32:46.396Z,5.75
2017-12-21T07:33:49.776Z,5.67
2017-12-21T07:35:04.496Z,5.65
2017-12-21T07:36:06.813Z,5.61
2017-12-21T07:37:09.459Z,5.64
2017-12-21T07:38:11.829Z,5.54
2017-12-21T07:39:14.103Z,5.60
2017-12-21T07:40:16.002Z,5.60
2017-12-21T07:41:18.068Z,5.54
2017-12-21T07:42:20.457Z,5.64
2017-12-21T07:43:22.852Z,5.57
2017-12-21T07:44:37.450Z,5.57
2017-12-21T07:45:39.864Z,5.51
2017-12-21T07:46:42.234Z,5.51
2017-12-21T07:47:44.319Z,5.42
2017-12-21T07:48:46.240Z,5.58
2017-12-21T07:49:48.437Z,5.67
2017-12-21T07:50:50.422Z,5.72
2017-12-21T07:51:52.820Z,5.81
2017-12-21T07:52:55.005Z,5.78
2017-12-21T07:54:09.635Z,5.94
2017-12-21T07:55:11.677Z,5.99
2017-12-21T07:56:14.150Z,6.03
2017-12-21T07:57:16.561Z,6.15
2017-12-21T07:58:18.862Z,6.25
2017-12-21T07:59:21.162Z,6.31
2017-12-21T08:00:23.584Z,6.30
2017-12-21T08:01:26.016Z,6.30
2017-12-21T08:02:28.419Z,6.30
2017-12-21T08:03:42.856Z,6.30
2017-12-21T08:04:45.388Z,6.19
2017-12-21T08:05:48.366Z,6.15
2017-12-21T08:06:50.798Z,6.15
2017-12-21T08:07:53.041Z,6.17
2017-12-21T08:08:55.520Z,6.11
2017-12-21T08:09:57.848Z,6.04
2017-12-21T08:11:00.132Z,6.06
2017-12-21T08:12:02.577Z,6.14
2017-12-21T08:13:17.217Z,6.18
2017-12-21T08:14:19.327Z,6.18
2017-12-21T08:15:21.579Z,6.33
2017-12-21T08:16:23.892Z,6.33
2017-12-21T08:17:25.751Z,6.28
2017-12-21T08:18:28.193Z,6.27
2017-12-21T08:19:31.553Z,6.34
2017-12-21T08:20:33.561Z,6.34
2017-12-21T08:21:35.541Z,6.41
2017-12-21T08:22:50.299Z,6.44
2017-12-21T08:23:52.256Z,6.41
2017-12-21T08:24:55.060Z,6.46
2017-12-21T08:25:57.423Z,6.41
2017-12-21T08:26:59.551Z,6.40
2017-12-21T08:28:01.737Z,6.36
2017-12-21T08:29:04.413Z,6.27
2017-12-21T08:30:06.410Z,6.17
2017-12-21T08:31:08.777Z,6.19
2017-12-21T08:32:23.052Z,6.15
2017-12-21T08:33:25.016Z,6.14
2017-12-21T08:34:27.280Z,6.08
2017-12-21T08:35:29.374Z,5.96
2017-12-21T08:36:31.580Z,5.96
2017-12-21T08:37:33.495Z,5.93
2017-12-21T08:38:36.164Z,6.00
2017-12-21T08:39:38.509Z,6.14
2017-12-21T08:40:40.803Z,6.28
2017-12-21T08:41:55.090Z,6.40
2017-12-21T08:42:57.535Z,6.34
2017-12-21T08:43:59.853Z,6.34
2017-12-21T08:45:01.977Z,6.34
2017-12-21T08:46:04.140Z,6.31
2017-12-21T08:47:06.794Z,6.38
2017-12-21T08:48:08.839Z,6.40
2017-12-21T08:49:11.027Z,6.43
2017-12-21T08:50:13.747Z,6.52
2017-12-21T08:51:28.559Z,6.64
2017-12-21T08:52:30.818Z,6.62
2017-12-21T08:53:33.180Z,6.70
2017-12-21T08:54:35.999Z,6.67
2017-12-21T08:55:38.166Z,6.64
2017-12-21T08:56:40.068Z,6.69
2017-12-21T08:57:42.399Z,6.69
2017-12-21T08:58:45.294Z,6.61
2017-12-21T08:59:47.283Z,6.61
2017-12-21T09:01:02.611Z,6.59
2017-12-21T09:02:04.978Z,6.56
2017-12-21T09:03:07.297Z,6.54
2017-12-21T09:04:09.244Z,6.44
2017-12-21T09:05:11.488Z,6.44
2017-12-21T09:06:13.818Z,6.46
2017-12-21T09:07:16.146Z,6.44
2017-12-21T09:08:18.135Z,6.55
2017-12-21T09:09:20.445Z,6.41
2017-12-21T09:10:35.944Z,6.67
2017-12-21T09:11:37.994Z,6.70
2017-12-21T09:12:40.205Z,6.54
2017-12-21T09:13:42.536Z,6.61
2017-12-21T09:14:44.654Z,6.66
2017-12-21T09:15:46.814Z,6.67
2017-12-21T09:16:48.857Z,6.66
2017-12-21T09:17:51.239Z,6.64
2017-12-21T09:18:53.729Z,6.51
2017-12-21T09:20:08.354Z,6.56
2017-12-21T09:21:10.310Z,6.56
2017-12-21T09:22:12.651Z,6.64
2017-12-21T09:23:15.183Z,6.59
2017-12-21T09:24:17.512Z,6.67
2017-12-21T09:25:19.748Z,6.56
2017-12-21T09:26:21.843Z,6.58
2017-12-21T09:27:23.942Z,6.58
2017-12-21T09:28:26.351Z,6.52
2017-12-21T09:29:40.767Z,6.43
2017-12-21T09:30:43.187Z,6.43
2017-12-21T09:31:45.226Z,6.37
2017-12-21T09:32:47.310Z,6.36
2017-12-21T09:33:49.248Z,6.34
2017-12-21T09:34:51.199Z,6.41
2017-12-21T09:35:53.804Z,6.44
2017-12-21T09:36:55.795Z,6.49
2017-12-21T09:37:58.031Z,6.56
2017-12-21T09:39:12.363Z,6.51
2017-12-21T09:40:14.398Z,6.51
2017-12-21T09:41:17.094Z,6.67
2017-12-21T09:42:19.575Z,6.67
2017-12-21T09:43:21.992Z,6.71
2017-12-21T09:44:24.293Z,6.70
2017-12-21T09:45:26.279Z,6.69
2017-12-21T09:46:28.225Z,6.67
2017-12-21T09:47:30.599Z,6.66
2017-12-21T09:49:49.481Z,6.69
2017-12-21T09:50:51.821Z,6.74
2017-12-21T09:51:53.821Z,6.88
2017-12-21T09:52:55.767Z,6.85
2017-12-21T09:53:57.702Z,6.91
2017-12-21T09:55:00.380Z,6.89
2017-12-21T09:56:02.382Z,6.92
2017-12-21T09:57:04.368Z,6.97
2017-12-21T09:58:06.348Z,6.99
2017-12-21T09:59:20.795Z,7.06
2017-12-21T10:00:22.804Z,6.87
2017-12-21T10:01:24.774Z,6.95
2017-12-21T10:02:26.806Z,6.95
2017-12-21T10:03:28.916Z,6.85
2017-12-21T10:04:30.877Z,6.85
2017-12-21T10:05:32.752Z,6.70
2017-12-21T10:06:34.684Z,6.69
2017-12-21T10:07:36.605Z,6.85
2017-12-21T10:08:50.769Z,6.77
2017-12-21T10:09:52.641Z,6.71
2017-12-21T10:10:54.529Z,6.74
2017-12-21T10:11:56.393Z,6.70
2017-12-21T10:12:58.217Z,6.73
2017-12-21T10:14:00.020Z,6.77
2017-12-21T10:15:01.886Z,6.87
2017-12-21T10:16:03.753Z,6.87
2017-12-21T10:17:05.613Z,6.87
2017-12-21T10:18:19.751Z,6.91
2017-12-21T10:19:21.622Z,6.85
2017-12-21T10:20:23.512Z,6.79
2017-12-21T10:21:25.377Z,6.85
2017-12-21T10:22:27.198Z,6.87
2017-12-21T10:23:29.011Z,6.84
2017-12-21T10:24:30.897Z,6.77
2017-12-21T10:25:32.764Z,6.71
2017-12-21T10:26:34.631Z,6.69
2017-12-21T10:27:48.845Z,6.66
2017-12-21T10:28:50.708Z,6.70
2017-12-21T10:29:52.583Z,6.69
2017-12-21T10:30:54.506Z,6.70
2017-12-21T10:31:56.317Z,6.70
2017-12-21T10:32:58.136Z,6.61
2017-12-21T10:34:00.033Z,6.59
2017-12-21T10:35:01.918Z,6.66
2017-12-21T10:36:03.783Z,6.67
2017-12-21T10:37:17.965Z,6.88
2017-12-21T10:38:19.828Z,6.87
2017-12-21T10:39:21.723Z,6.73
2017-12-21T10:40:23.609Z,6.73
2017-12-21T10:41:25.440Z,6.71
2017-12-21T10:42:27.239Z,6.67
2017-12-21T10:43:29.107Z,6.71
2017-12-21T10:44:30.977Z,6.73
2017-12-21T10:45:32.846Z,6.74
2017-12-21T10:46:47.006Z,6.74
2017-12-21T10:47:48.875Z,6.70
2017-12-21T10:48:50.741Z,6.73
2017-12-21T10:49:52.630Z,6.74
2017-12-21T10:50:54.433Z,6.77
2017-12-21T10:51:56.260Z,6.70
2017-12-21T10:52:58.149Z,6.70
2017-12-21T10:54:00.042Z,6.67
2017-12-21T10:55:01.930Z,6.56
2017-12-21T10:56:16.094Z,6.49
2017-12-21T10:57:17.980Z,6.48
2017-12-21T10:58:19.851Z,6.54
2017-12-21T10:59:21.707Z,6.54
2017-12-21T11:00:23.520Z,6.51
2017-12-21T11:01:25.346Z,6.51
2017-12-21T11:02:27.235Z,6.49
2017-12-21T11:03:29.103Z,6.66
2017-12-21T11:04:30.969Z,6.55
2017-12-21T11:05:45.105Z,6.58
2017-12-21T11:06:46.973Z,6.51
2017-12-21T11:07:48.841Z,6.55
2017-12-21T11:08:50.704Z,6.41
2017-12-21T11:09:52.511Z,6.56
2017-12-21T11:10:54.339Z,6.52
2017-12-21T11:11:56.227Z,6.52
2017-12-21T11:12:58.146Z,6.54
2017-12-21T11:14:00.057Z,6.51
2017-12-21T11:15:14.212Z,6.52
2017-12-21T11:16:16.084Z,6.70
2017-12-21T11:17:17.976Z,6.67
2017-12-21T11:18:19.838Z,6.64
2017-12-21T11:19:21.649Z,6.67
2017-12-21T11:20:23.470Z,6.67
2017-12-21T11:21:25.357Z,6.67
2017-12-21T11:22:27.225Z,6.69
2017-12-21T11:23:29.091Z,6.62
2017-12-21T11:24:43.256Z,6.69
2017-12-21T11:25:45.119Z,6.67
2017-12-21T11:26:46.988Z,6.66
2017-12-21T11:27:48.876Z,6.66
2017-12-21T11:28:50.682Z,6.64
2017-12-21T11:29:52.510Z,6.61
2017-12-21T11:30:54.397Z,6.74
2017-12-21T11:31:56.290Z,6.66
2017-12-21T11:32:58.164Z,6.77
2017-12-21T11:34:12.310Z,6.66
2017-12-21T11:35:14.177Z,6.69
2017-12-21T11:36:16.462Z,6.69
2017-12-21T11:37:18.283Z,6.71
2017-12-21T11:38:20.096Z,6.56
2017-12-21T11:39:21.898Z,6.70
2017-12-21T11:40:23.786Z,6.58
2017-12-21T11:41:25.651Z,6.49
2017-12-21T11:42:27.520Z,6.40
2017-12-21T11:43:41.660Z,6.44
2017-12-21T11:44:43.545Z,6.48
2017-12-21T11:45:45.417Z,6.34
2017-12-21T11:46:47.281Z,6.46
2017-12-21T11:47:49.108Z,6.40
2017-12-21T11:48:50.918Z,6.41
2017-12-21T11:49:52.803Z,6.27
2017-12-21T11:50:54.672Z,6.34
2017-12-21T11:51:56.556Z,6.31
2017-12-21T11:53:10.700Z,6.25
2017-12-21T11:54:12.586Z,6.31
2017-12-21T11:55:14.457Z,6.31
2017-12-21T11:56:16.344Z,6.33
2017-12-21T11:57:18.156Z,6.41
2017-12-21T11:58:19.963Z,6.49
2017-12-21T11:59:21.834Z,6.41
2017-12-21T12:00:23.725Z,6.40
2017-12-21T12:01:25.592Z,6.43
2017-12-21T12:02:39.753Z,6.46
2017-12-21T12:03:41.623Z,6.48
2017-12-21T12:04:43.485Z,6.55
2017-12-21T12:05:45.375Z,6.46
2017-12-21T12:06:47.176Z,6.48
2017-12-21T12:07:48.983Z,6.55
2017-12-21T12:08:50.866Z,6.46
2017-12-21T12:09:52.738Z,6.54
2017-12-21T12:10:54.600Z,6.54
2017-12-21T12:12:08.737Z,6.58
2017-12-21T12:13:10.601Z,6.54
2017-12-21T12:14:12.470Z,6.71
2017-12-21T12:15:14.335Z,6.64
2017-12-21T12:16:16.163Z,6.71
2017-12-21T12:17:17.967Z,6.64
2017-12-21T12:18:19.837Z,6.59
2017-12-21T12:19:21.728Z,6.56
2017-12-21T12:20:23.620Z,6.48
2017-12-21T12:21:37.763Z,6.52
2017-12-21T12:22:39.650Z,6.49
2017-12-21T12:23:41.520Z,6.54
2017-12-21T12:24:43.391Z,6.54
2017-12-21T12:25:45.211Z,6.56
2017-12-21T12:26:47.020Z,6.44
2017-12-21T12:27:48.906Z,6.48
2017-12-21T12:28:50.800Z,6.44
2017-12-21T12:29:52.669Z,6.44
2017-12-21T12:31:06.811Z,6.38
2017-12-21T12:32:08.697Z,6.36
2017-12-21T12:33:10.576Z,6.37
2017-12-21T12:34:12.460Z,6.33
2017-12-21T12:35:14.266Z,6.34
2017-12-21T12:36:16.074Z,6.41
2017-12-21T12:37:17.941Z,6.28
2017-12-21T12:38:19.831Z,6.33
2017-12-21T12:39:21.697Z,6.34
2017-12-21T12:40:35.885Z,6.31
2017-12-21T12:41:37.753Z,6.28
2017-12-21T12:42:39.643Z,6.21
2017-12-21T12:43:41.532Z,6.12
2017-12-21T12:44:43.334Z,6.22
2017-12-21T12:45:45.142Z,6.19
2017-12-21T12:46:47.024Z,6.18
2017-12-21T12:47:48.894Z,6.19
2017-12-21T12:48:50.784Z,6.21
2017-12-21T12:50:04.993Z,6.22
2017-12-21T12:51:06.860Z,6.36
2017-12-21T12:52:08.722Z,6.38
2017-12-21T12:53:10.587Z,6.40
2017-12-21T12:54:12.396Z,6.51
2017-12-21T12:55:14.201Z,6.54
2017-12-21T12:56:16.099Z,6.52
2017-12-21T12:57:17.981Z,6.69
2017-12-21T12:58:19.847Z,6.61
2017-12-21T12:59:34.066Z,6.73
2017-12-21T13:00:35.984Z,6.73
2017-12-21T13:01:37.847Z,6.69
2017-12-21T13:02:39.711Z,6.59
2017-12-21T13:03:41.518Z,6.69
2017-12-21T13:04:43.314Z,6.58
2017-12-21T13:05:45.180Z,6.70
2017-12-21T13:06:47.048Z,6.62
2017-12-21T13:07:48.915Z,6.66
2017-12-21T13:09:03.079Z,6.69
2017-12-21T13:10:04.968Z,6.74
2017-12-21T13:11:06.841Z,6.69
2017-12-21T13:12:08.731Z,6.73
2017-12-21T13:13:10.537Z,6.73
2017-12-21T13:14:12.370Z,6.76
2017-12-21T13:15:14.426Z,6.74
2017-12-21T13:16:16.278Z,6.71
2017-12-21T13:17:18.184Z,6.71
2017-12-21T13:18:32.333Z,6.76
2017-12-21T13:19:34.236Z,6.69
2017-12-21T13:20:36.120Z,6.69
2017-12-21T13:21:37.980Z,6.61
2017-12-21T13:22:39.784Z,6.71
2017-12-21T13:23:41.595Z,6.69
2017-12-21T13:24:43.477Z,6.64
2017-12-21T13:25:45.348Z,6.61
2017-12-21T13:26:47.212Z,6.64
2017-12-21T13:28:01.375Z,6.61
2017-12-21T13:29:03.264Z,6.67
2017-12-21T13:30:05.156Z,6.61
2017-12-21T13:31:07.017Z,6.61
2017-12-21T13:32:08.844Z,6.62
2017-12-21T13:33:10.645Z,6.67
2017-12-21T13:34:12.516Z,6.77
2017-12-21T13:35:14.404Z,6.74
2017-12-21T13:36:16.277Z,6.74
2017-12-21T13:37:30.437Z,6.74
2017-12-21T13:38:32.325Z,6.67
2017-12-21T13:39:34.218Z,6.71
2017-12-21T13:40:36.106Z,6.76
2017-12-21T13:41:37.911Z,6.64
2017-12-21T13:42:39.707Z,6.66
2017-12-21T13:43:41.574Z,6.64
2017-12-21T13:44:43.445Z,6.70
2017-12-21T13:45:45.331Z,6.70
2017-12-21T13:46:59.499Z,6.73
2017-12-21T13:48:01.383Z,6.67
2017-12-21T13:49:03.255Z,6.79
2017-12-21T13:50:05.143Z,6.85
2017-12-21T13:51:06.952Z,6.81
2017-12-21T13:52:08.753Z,6.70
2017-12-21T13:53:10.612Z,6.77
2017-12-21T13:54:12.483Z,6.67
2017-12-21T13:55:14.370Z,6.69
2017-12-21T13:56:28.506Z,6.80
2017-12-21T13:57:30.373Z,6.74
2017-12-21T13:58:32.236Z,6.74
2017-12-21T13:59:34.103Z,6.85
2017-12-21T14:00:35.928Z,6.81
2017-12-21T14:01:37.756Z,6.71
2017-12-21T14:02:39.641Z,6.79
2017-12-21T14:03:41.511Z,6.71